Time;durP1;ratioP1;P1;durP2;ratioP2;P2;SDS_P1;SDS_P2;PMS_P1;PMS_P2;Temp;Humidity;BMP_temperature;BMP_pressure;BME280_temperature;BME280_humidity;BME280_pressure;Samples;Min_cycle;Max_cycle;Signal;HPM_P1;HPM_P2
2024/01/28 00:01:41;;;;;;;3.30;1.35;;;;;;;3.48;92.89;103394.47;5055177;27;101023;-28
2024/01/28 00:04:08;;;;;;;1.23;1.13;;;;;;;3.46;93.06;103394.47;5055513;27;98909;-27
2024/01/28 00:06:33;;;;;;;1.92;1.50;;;;;;;3.43;93.35;103382.81;5055978;27;96498;-27
2024/01/28 00:08:58;;;;;;;0.63;0.57;;;;;;;3.37;93.01;103381.88;5057469;27;96898;-27
2024/01/28 00:11:24;;;;;;;8.52;2.92;;;;;;;3.36;93.13;103387.22;5057073;27;97393;-27
2024/01/28 00:13:49;;;;;;;1.42;1.20;;;;;;;3.36;92.99;103388.13;5057292;27;97818;-27
2024/01/28 00:16:16;;;;;;;1.45;1.08;;;;;;;3.34;92.81;103387.22;5055712;27;96588;-28
2024/01/28 00:18:41;;;;;;;8.52;1.70;;;;;;;3.30;92.62;103382.69;5056075;27;96806;-27
2024/01/28 00:21:07;;;;;;;2.85;1.75;;;;;;;3.26;93.06;103378.19;5056649;27;99201;-28
2024/01/28 00:23:32;;;;;;;4.18;1.35;;;;;;;3.24;92.98;103368.34;5057053;27;97288;-28
2024/01/28 00:25:57;;;;;;;4.43;1.80;;;;;;;3.27;92.57;103380.00;5056598;27;96511;-27
2024/01/28 00:28:23;;;;;;;5.55;2.30;;;;;;;3.21;92.87;103366.53;5057247;27;96774;-27
2024/01/28 00:30:48;;;;;;;3.13;2.35;;;;;;;3.21;93.17;103355.81;5056839;27;97405;-27
2024/01/28 00:33:14;;;;;;;1.45;0.85;;;;;;;3.21;92.86;103353.16;5056743;27;97208;-27
2024/01/28 00:35:39;;;;;;;3.83;2.35;;;;;;;3.24;92.90;103357.63;5056698;27;96535;-27
2024/01/28 00:38:05;;;;;;;3.25;1.95;;;;;;;3.21;93.04;103363.84;5057308;27;96924;-27
2024/01/28 00:40:30;;;;;;;6.32;1.10;;;;;;;3.21;92.62;103355.81;5056507;27;97923;-27
2024/01/28 00:42:56;;;;;;;1.52;1.35;;;;;;;3.17;92.92;103349.56;5056819;27;99751;-28
2024/01/28 00:45:21;;;;;;;1.42;1.08;;;;;;;3.21;93.06;103349.56;5055537;27;96492;-27
2024/01/28 00:47:46;;;;;;;1.63;1.08;;;;;;;3.17;92.96;103343.28;5056810;27;97460;-27
2024/01/28 00:50:12;;;;;;;0.68;0.68;;;;;;;3.17;93.31;103341.53;5055644;27;99232;-28
2024/01/28 00:52:37;;;;;;;0.65;0.65;;;;;;;3.15;92.84;103331.69;5056363;27;97275;-27
2024/01/28 00:55:03;;;;;;;1.65;1.08;;;;;;;3.15;93.18;103334.34;5056332;27;96741;-27
2024/01/28 00:57:29;;;;;;;1.85;0.77;;;;;;;3.11;92.82;103338.78;5055078;27;96934;-27
2024/01/28 00:59:54;;;;;;;5.20;1.77;;;;;;;3.08;93.02;103328.03;5056126;27;97378;-27
2024/01/28 01:02:19;;;;;;;1.58;1.20;;;;;;;3.04;92.90;103333.34;5056042;27;98764;-27
2024/01/28 01:04:45;;;;;;;0.77;0.77;;;;;;;3.05;93.10;103338.72;5056235;27;96584;-27
2024/01/28 01:07:10;;;;;;;1.38;0.85;;;;;;;3.01;93.02;103341.38;5057123;27;96832;-27
2024/01/28 01:09:35;;;;;;;1.13;1.02;;;;;;;3.01;92.84;103344.03;5056266;27;97865;-27
2024/01/28 01:12:02;;;;;;;1.00;0.90;;;;;;;2.91;92.87;103335.91;5055456;27;99440;-27
2024/01/28 01:14:27;;;;;;;0.80;0.80;;;;;;;2.94;92.65;103337.72;5054336;27;96546;-27
2024/01/28 01:16:53;;;;;;;0.70;0.70;;;;;;;2.93;92.44;103334.16;5056385;27;96754;-27
2024/01/28 01:19:18;;;;;;;1.85;0.82;;;;;;;2.94;92.45;103335.03;5056218;27;97337;-28
2024/01/28 01:21:44;;;;;;;3.55;2.13;;;;;;;2.92;92.63;103326.97;5055786;27;99391;-28
2024/01/28 01:24:09;;;;;;;1.35;1.25;;;;;;;2.85;92.75;103298.34;5056217;27;96553;-27
2024/01/28 01:26:34;;;;;;;0.70;0.65;;;;;;;2.90;92.43;103301.09;5056220;27;96787;-27
2024/01/28 01:29:00;;;;;;;0.00;0.00;;;;;;;2.92;92.61;103307.34;5056053;27;97637;-27
2024/01/28 01:31:25;;;;;;;1.60;0.65;;;;;;;2.87;92.75;103291.25;5055874;27;99093;-27
2024/01/28 01:33:50;;;;;;;1.08;0.70;;;;;;;2.92;92.79;103294.84;5055901;27;96708;-27
2024/01/28 01:36:16;;;;;;;1.77;1.15;;;;;;;2.94;93.05;103293.09;5056039;27;96778;-27
2024/01/28 01:38:41;;;;;;;2.03;0.68;;;;;;;2.95;92.85;103283.28;5055294;27;97903;-27
2024/01/28 01:41:06;;;;;;;0.70;0.70;;;;;;;2.94;92.60;103284.19;5055673;27;97241;-27
2024/01/28 01:43:32;;;;;;;0.82;0.55;;;;;;;2.91;92.90;103278.81;5056223;27;96689;-27
2024/01/28 01:45:58;;;;;;;1.27;1.13;;;;;;;2.91;92.47;103284.16;5055826;27;96805;-27
2024/01/28 01:48:24;;;;;;;1.08;0.73;;;;;;;2.85;92.75;103276.06;5053791;27;101023;-28
2024/01/28 01:50:50;;;;;;;4.25;1.25;;;;;;;2.84;92.81;103277.84;5053919;27;100721;-27
2024/01/28 01:53:18;;;;;;;0.52;0.52;;;;;;;2.81;92.68;103267.09;5054319;27;96616;-27
2024/01/28 01:55:43;;;;;;;0.90;0.75;;;;;;;2.91;92.68;103273.44;5054382;27;96982;-27
2024/01/28 01:58:10;;;;;;;1.48;0.88;;;;;;;2.85;92.91;103273.38;5054749;27;99696;-27
2024/01/28 02:00:37;;;;;;;1.17;0.90;;;;;;;2.77;92.97;103254.56;5055222;27;99360;-27
2024/01/28 02:03:03;;;;;;;1.70;1.02;;;;;;;2.87;92.96;103272.50;5053449;27;96718;-30
2024/01/28 02:05:28;;;;;;;0.70;0.70;;;;;;;2.84;92.40;103271.59;5054142;27;96815;-27
2024/01/28 02:07:54;;;;;;;0.32;0.32;;;;;;;2.79;92.79;103257.25;5055008;27;99601;-27
2024/01/28 02:10:22;;;;;;;0.85;0.85;;;;;;;2.78;93.12;103264.38;5055403;27;97865;-27
2024/01/28 02:12:49;;;;;;;3.53;1.15;;;;;;;2.76;92.87;103264.38;5054025;27;96853;-27
2024/01/28 02:15:16;;;;;;;1.05;0.93;;;;;;;2.77;92.57;103273.31;5053960;27;96933;-27
2024/01/28 02:17:41;;;;;;;0.50;0.30;;;;;;;2.72;92.71;103269.69;5053649;27;101271;-27
2024/01/28 02:20:07;;;;;;;0.65;0.65;;;;;;;2.71;92.98;103275.91;5055504;27;97269;-27
2024/01/28 02:22:33;;;;;;;1.98;1.35;;;;;;;2.70;92.54;103275.03;5053829;27;96585;-27
2024/01/28 02:24:58;;;;;;;0.45;0.45;;;;;;;2.67;92.75;103272.31;5054241;27;96756;-27
2024/01/28 02:27:23;;;;;;;0.57;0.43;;;;;;;2.67;92.85;103272.31;5054330;27;98938;-27
2024/01/28 02:29:49;;;;;;;2.15;1.13;;;;;;;2.60;92.61;103258.84;5054828;27;99219;-27
2024/01/28 02:32:16;;;;;;;1.38;1.13;;;;;;;2.65;92.51;103265.16;5053507;27;96657;-27
2024/01/28 02:34:42;;;;;;;2.33;1.45;;;;;;;2.64;92.27;103269.59;5053950;27;96924;-27
2024/01/28 02:37:10;;;;;;;3.30;1.00;;;;;;;2.65;92.64;103267.84;5054704;27;98234;-27
2024/01/28 02:39:36;;;;;;;1.45;0.70;;;;;;;2.56;92.42;103249.91;5053329;27;101253;-27
2024/01/28 02:42:01;;;;;;;0.98;0.88;;;;;;;2.56;92.33;103252.56;5053525;27;97385;-27
2024/01/28 02:44:26;;;;;;;1.42;1.17;;;;;;;2.58;92.59;103256.16;5055418;27;96770;-27
2024/01/28 02:46:53;;;;;;;0.77;0.75;;;;;;;2.54;92.24;103257.00;5054559;27;99034;-27
2024/01/28 02:49:21;;;;;;;0.98;0.35;;;;;;;2.52;92.36;103256.97;5053162;27;101039;-27
2024/01/28 02:51:47;;;;;;;0.35;0.35;;;;;;;2.50;92.21;103253.41;5053106;27;96588;-27
2024/01/28 02:54:12;;;;;;;0.93;0.65;;;;;;;2.48;92.69;103249.81;5054566;27;96856;-27
2024/01/28 02:56:37;;;;;;;1.15;0.95;;;;;;;2.47;92.55;103247.13;5054563;27;97433;-27
2024/01/28 02:59:03;;;;;;;0.35;0.30;;;;;;;2.41;92.75;103229.25;5053961;27;99819;-28
2024/01/28 03:01:29;;;;;;;0.95;0.68;;;;;;;2.39;92.67;103232.78;5054497;27;96635;-28
2024/01/28 03:03:55;;;;;;;0.60;0.60;;;;;;;2.43;92.75;103235.50;5053435;27;96705;-27
2024/01/28 03:06:20;;;;;;;1.65;0.57;;;;;;;2.43;93.11;103238.19;5054666;27;97360;-28
2024/01/28 03:08:45;;;;;;;0.40;0.40;;;;;;;2.38;92.66;103229.19;5054711;27;99098;-28
2024/01/28 03:11:11;;;;;;;1.52;1.23;;;;;;;2.41;93.24;103223.88;5054736;27;96682;-27
2024/01/28 03:13:36;;;;;;;0.65;0.65;;;;;;;2.43;93.09;103216.78;5054707;27;97538;-27
2024/01/28 03:16:03;;;;;;;2.22;1.27;;;;;;;2.42;92.91;103201.59;5053672;27;97903;-28
2024/01/28 03:18:28;;;;;;;0.80;0.77;;;;;;;2.49;92.91;103210.59;5052888;27;101028;-28
2024/01/28 03:20:53;;;;;;;1.38;0.82;;;;;;;2.48;92.73;103204.34;5054777;27;96479;-27
2024/01/28 03:23:19;;;;;;;3.17;1.27;;;;;;;2.46;92.64;103199.88;5054653;27;96899;-27
2024/01/28 03:25:45;;;;;;;0.93;0.70;;;;;;;2.47;92.79;103207.88;5052798;27;100817;-27
2024/01/28 03:28:11;;;;;;;1.10;0.98;;;;;;;2.41;93.06;103186.44;5052733;27;100985;-27
2024/01/28 03:30:36;;;;;;;5.72;0.95;;;;;;;2.44;92.61;103193.59;5054293;27;96518;-27
2024/01/28 03:33:02;;;;;;;0.98;0.85;;;;;;;2.41;92.75;103186.44;5054950;27;96845;-27
2024/01/28 03:35:27;;;;;;;0.30;0.30;;;;;;;2.43;92.56;103208.75;5055371;27;97356;-29
2024/01/28 03:37:52;;;;;;;0.05;0.05;;;;;;;2.42;92.25;103198.91;5057760;27;97757;-28
2024/01/28 03:40:18;;;;;;;1.80;1.05;;;;;;;2.33;92.41;103205.06;5057496;27;96568;-28
2024/01/28 03:42:43;;;;;;;0.77;0.75;;;;;;;2.28;92.55;103201.44;5057768;27;96769;-27
2024/01/28 03:45:09;;;;;;;0.73;0.50;;;;;;;2.32;92.58;103197.94;5057116;27;99233;-28
2024/01/28 03:47:37;;;;;;;0.55;0.55;;;;;;;2.38;92.59;103202.44;5055860;27;101523;-27
2024/01/28 03:50:04;;;;;;;0.30;0.22;;;;;;;2.36;92.86;103196.22;5057485;27;96618;-27
2024/01/28 03:52:29;;;;;;;2.40;1.95;;;;;;;2.40;92.51;103198.00;5056314;27;96904;-28
2024/01/28 03:54:55;;;;;;;0.93;0.63;;;;;;;2.33;91.89;103190.81;5057309;27;98085;-27
2024/01/28 03:57:20;;;;;;;0.50;0.50;;;;;;;2.39;92.63;103201.56;5057600;27;97264;-27
2024/01/28 03:59:46;;;;;;;3.15;1.80;;;;;;;2.34;92.16;103181.91;5056454;27;96830;-27
2024/01/28 04:02:14;;;;;;;0.45;0.28;;;;;;;2.40;92.31;103186.41;5056123;27;96856;-27
2024/01/28 04:04:40;;;;;;;0.30;0.30;;;;;;;2.42;92.47;103188.22;5055255;27;101168;-28
2024/01/28 04:07:05;;;;;;;0.70;0.70;;;;;;;2.32;92.21;103175.66;5057067;27;99006;-27
2024/01/28 04:09:30;;;;;;;1.05;0.95;;;;;;;2.33;92.06;103182.78;5057602;27;96538;-27
2024/01/28 04:11:56;;;;;;;0.43;0.43;;;;;;;2.37;91.98;103184.63;5057332;27;96842;-27
2024/01/28 04:14:21;;;;;;;0.70;0.63;;;;;;;2.37;92.01;103206.00;5056462;27;99755;-27
2024/01/28 04:16:47;;;;;;;0.52;0.52;;;;;;;2.32;92.38;103200.59;5056792;27;99196;-27
2024/01/28 04:19:12;;;;;;;0.68;0.55;;;;;;;2.37;92.33;103199.78;5057355;27;96608;-27
2024/01/28 04:21:37;;;;;;;0.20;0.20;;;;;;;2.38;92.36;103191.75;5057771;27;96784;-28
2024/01/28 04:24:03;;;;;;;0.28;0.28;;;;;;;2.35;92.28;103183.69;5056631;27;98891;-28
2024/01/28 04:26:28;;;;;;;0.55;0.55;;;;;;;2.35;92.46;103183.69;5057063;27;97354;-27
2024/01/28 04:28:55;;;;;;;0.80;0.80;;;;;;;2.33;92.20;103172.09;5056342;27;96619;-27
2024/01/28 04:31:20;;;;;;;0.55;0.45;;;;;;;2.37;91.93;103175.69;5055758;27;96771;-27
2024/01/28 04:33:46;;;;;;;1.25;1.10;;;;;;;2.35;91.90;103181.03;5056543;27;99597;-27
2024/01/28 04:36:11;;;;;;;1.85;1.27;;;;;;;2.34;92.25;103172.09;5056415;27;99321;-27
2024/01/28 04:38:37;;;;;;;1.38;0.65;;;;;;;2.32;91.89;103157.81;5057098;27;96659;-27
2024/01/28 04:41:02;;;;;;;0.95;0.50;;;;;;;2.32;91.80;103149.81;5056714;27;96794;-27
2024/01/28 04:43:28;;;;;;;0.55;0.55;;;;;;;2.30;92.04;103148.88;5056140;27;99210;-27
2024/01/28 04:45:53;;;;;;;0.95;0.65;;;;;;;2.32;91.67;103140.88;5056838;27;99260;-27
2024/01/28 04:48:20;;;;;;;0.82;0.70;;;;;;;2.30;91.72;103143.53;5055622;27;97365;-27
2024/01/28 04:50:45;;;;;;;0.55;0.55;;;;;;;2.27;91.50;103135.50;5055395;27;96788;-27
2024/01/28 04:53:11;;;;;;;1.10;0.65;;;;;;;2.28;92.09;103133.72;5056167;27;97864;-27
2024/01/28 04:55:36;;;;;;;0.40;0.40;;;;;;;2.27;91.32;103134.59;5055873;27;99189;-27
2024/01/28 04:58:02;;;;;;;2.92;0.77;;;;;;;2.24;91.59;103129.19;5055838;27;96739;-28
2024/01/28 05:00:28;;;;;;;0.50;0.50;;;;;;;2.19;92.02;103118.47;5055209;27;96786;-28
2024/01/28 05:02:56;;;;;;;1.52;0.40;;;;;;;2.23;91.71;103120.28;5054776;27;101102;-27
2024/01/28 05:05:22;;;;;;;0.45;0.45;;;;;;;2.29;91.87;103130.16;5054760;27;100741;-27
2024/01/28 05:07:48;;;;;;;2.25;0.93;;;;;;;2.29;92.15;103132.84;5055072;27;96649;-27
2024/01/28 05:10:13;;;;;;;0.20;0.17;;;;;;;2.23;91.90;103122.06;5055402;27;96787;-27
2024/01/28 05:12:39;;;;;;;0.80;0.68;;;;;;;2.23;91.54;103128.31;5055939;27;99431;-28
2024/01/28 05:15:06;;;;;;;0.70;0.38;;;;;;;2.24;91.76;103124.78;5056239;27;97753;-27
2024/01/28 05:17:32;;;;;;;1.00;0.68;;;;;;;2.13;91.56;103105.94;5054267;27;96717;-27
2024/01/28 05:19:57;;;;;;;1.98;0.90;;;;;;;2.20;91.49;103108.69;5056711;27;96726;-27
2024/01/28 05:22:23;;;;;;;0.65;0.65;;;;;;;2.18;91.45;103110.44;5056302;27;97402;-28
2024/01/28 05:24:50;;;;;;;1.02;0.93;;;;;;;2.08;92.34;103094.31;5056008;27;97316;-26
2024/01/28 05:27:16;;;;;;;0.75;0.75;;;;;;;2.12;92.01;103104.16;5054542;27;96890;-27
2024/01/28 05:29:41;;;;;;;2.08;0.30;;;;;;;2.12;92.38;103098.81;5054701;27;96775;-27
2024/01/28 05:32:07;;;;;;;0.20;0.20;;;;;;;2.09;91.94;103093.41;5055591;27;99262;-27
2024/01/28 05:34:32;;;;;;;0.35;0.35;;;;;;;2.00;91.81;103089.75;5056216;27;97941;-28
2024/01/28 05:36:57;;;;;;;0.43;0.43;;;;;;;1.97;92.00;103084.38;5056244;27;96677;-28
2024/01/28 05:39:23;;;;;;;0.60;0.55;;;;;;;1.97;92.16;103087.94;5056507;27;96740;-29
2024/01/28 05:41:48;;;;;;;0.60;0.43;;;;;;;1.98;91.87;103091.50;5054815;27;99068;-28
2024/01/28 05:44:13;;;;;;;5.07;0.63;;;;;;;1.92;92.33;103081.66;5055799;27;97765;-27
2024/01/28 05:46:39;;;;;;;2.25;0.80;;;;;;;1.91;92.00;103088.78;5055965;27;96498;-27
2024/01/28 05:49:04;;;;;;;0.15;0.15;;;;;;;1.92;92.41;103079.88;5055893;27;96808;-28
2024/01/28 05:51:32;;;;;;;0.88;0.80;;;;;;;1.93;92.18;103083.44;5055383;27;99241;-27
2024/01/28 05:53:58;;;;;;;1.15;0.68;;;;;;;1.89;92.27;103081.66;5053564;27;100980;-27
2024/01/28 05:56:23;;;;;;;0.65;0.60;;;;;;;1.91;92.48;103088.78;5055900;27;96614;-27
2024/01/28 05:58:49;;;;;;;0.60;0.60;;;;;;;1.92;92.45;103093.25;5055074;27;96902;-27
2024/01/28 06:01:14;;;;;;;1.48;1.05;;;;;;;1.91;92.16;103095.94;5055265;27;99585;-27
2024/01/28 06:03:41;;;;;;;3.22;0.68;;;;;;;1.92;92.62;103101.25;5055380;27;97271;-27
2024/01/28 06:06:07;;;;;;;0.25;0.25;;;;;;;1.86;92.10;103089.59;5053496;27;97746;-27
2024/01/28 06:08:32;;;;;;;0.50;0.50;;;;;;;1.81;92.15;103075.31;5054102;27;96855;-27
2024/01/28 06:10:58;;;;;;;1.52;1.02;;;;;;;1.86;92.24;103097.63;5055159;27;97416;-27
2024/01/28 06:13:23;;;;;;;1.38;1.25;;;;;;;1.85;92.73;103096.72;5054954;27;99082;-27
2024/01/28 06:15:51;;;;;;;0.38;0.38;;;;;;;1.85;92.59;103095.84;5055382;27;96567;-27
2024/01/28 06:18:16;;;;;;;1.63;1.10;;;;;;;1.80;92.78;103084.22;5055251;27;96850;-28
2024/01/28 06:20:41;;;;;;;0.90;0.85;;;;;;;1.79;92.70;103082.41;5054892;27;99690;-27
2024/01/28 06:23:07;;;;;;;2.42;1.33;;;;;;;1.79;92.66;103079.72;5055248;27;99090;-27
2024/01/28 06:25:32;;;;;;;0.88;0.80;;;;;;;1.81;92.59;103092.25;5055023;27;96669;-27
2024/01/28 06:27:58;;;;;;;0.88;0.80;;;;;;;1.84;92.91;103078.03;5055125;27;96824;-27
2024/01/28 06:30:23;;;;;;;0.73;0.73;;;;;;;1.80;92.34;103071.75;5054694;27;97799;-27
2024/01/28 06:32:49;;;;;;;2.10;1.35;;;;;;;1.85;92.63;103078.03;5054956;27;97760;-29
2024/01/28 06:35:15;;;;;;;0.17;0.17;;;;;;;1.82;92.34;103069.09;5053887;27;96701;-27
2024/01/28 06:37:40;;;;;;;1.40;1.25;;;;;;;1.83;92.22;103071.75;5054957;27;97223;-27
2024/01/28 06:40:06;;;;;;;1.25;0.77;;;;;;;1.86;92.42;103076.25;5054471;27;97277;-27
2024/01/28 06:42:32;;;;;;;0.85;0.55;;;;;;;1.85;92.70;103074.47;5054829;27;97836;-27
2024/01/28 06:45:00;;;;;;;0.38;0.38;;;;;;;1.87;92.35;103078.06;5055230;27;96507;-28
2024/01/28 06:47:26;;;;;;;1.33;1.00;;;;;;;1.78;92.50;103054.78;5053842;27;96893;-27
2024/01/28 06:49:51;;;;;;;2.45;1.67;;;;;;;1.81;92.11;103057.53;5055125;27;96800;-28
2024/01/28 06:52:17;;;;;;;3.60;1.20;;;;;;;1.89;92.09;103070.97;5054553;27;98827;-28
2024/01/28 06:54:42;;;;;;;0.43;0.32;;;;;;;1.83;92.52;103044.16;5053921;27;96659;-28
2024/01/28 06:57:08;;;;;;;1.38;0.85;;;;;;;1.87;91.97;103062.03;5054944;27;96760;-27
2024/01/28 06:59:33;;;;;;;0.50;0.50;;;;;;;1.91;91.80;103061.19;5054126;27;97515;-27
2024/01/28 07:01:59;;;;;;;1.67;1.42;;;;;;;1.88;92.05;103061.13;5054298;27;99174;-27
2024/01/28 07:04:25;;;;;;;1.08;0.85;;;;;;;1.86;92.27;103053.13;5054724;27;96688;-28
2024/01/28 07:06:50;;;;;;;1.58;1.33;;;;;;;1.87;91.67;103057.56;5053379;27;96821;-27
2024/01/28 07:09:17;;;;;;;0.93;0.80;;;;;;;1.83;91.85;103046.81;5054421;27;97834;-27
2024/01/28 07:11:43;;;;;;;3.22;1.02;;;;;;;1.84;91.97;103043.28;5057498;27;98842;-28
2024/01/28 07:14:08;;;;;;;1.70;1.25;;;;;;;1.81;91.35;103046.84;5058149;27;96528;-27
2024/01/28 07:16:34;;;;;;;0.40;0.40;;;;;;;1.87;91.76;103051.34;5058158;27;96787;-27
2024/01/28 07:19:00;;;;;;;0.28;0.28;;;;;;;1.91;91.62;103061.19;5055874;27;101089;-27
2024/01/28 07:21:26;;;;;;;0.43;0.43;;;;;;;1.91;91.50;103055.84;5057930;27;97362;-27
2024/01/28 07:23:51;;;;;;;4.07;1.48;;;;;;;1.91;91.30;103053.16;5057780;27;96789;-28
2024/01/28 07:26:17;;;;;;;1.00;0.50;;;;;;;1.77;91.21;103025.41;5057953;27;96821;-28
2024/01/28 07:28:42;;;;;;;0.30;0.30;;;;;;;1.87;91.26;103044.19;5057893;27;97942;-27
2024/01/28 07:31:09;;;;;;;0.28;0.28;;;;;;;1.87;91.49;103044.19;5057486;27;99277;-27
2024/01/28 07:33:35;;;;;;;0.52;0.52;;;;;;;1.87;91.19;103033.50;5058168;27;96850;-27
2024/01/28 07:36:00;;;;;;;1.55;1.45;;;;;;;1.84;91.26;103021.91;5057951;27;96822;-27
2024/01/28 07:38:26;;;;;;;0.60;0.52;;;;;;;1.97;91.03;103030.94;5055941;27;101065;-27
2024/01/28 07:40:51;;;;;;;0.70;0.65;;;;;;;1.99;90.52;103037.19;5057291;27;99145;-28
2024/01/28 07:43:17;;;;;;;1.42;0.90;;;;;;;1.97;91.07;103034.50;5057412;27;96622;-27
2024/01/28 07:45:42;;;;;;;0.28;0.28;;;;;;;1.94;91.04;103023.78;5057633;27;96912;-27
2024/01/28 07:48:08;;;;;;;0.65;0.60;;;;;;;1.98;91.04;103028.28;5057464;27;97932;-27
2024/01/28 07:50:33;;;;;;;0.20;0.17;;;;;;;1.95;90.43;103027.34;5057569;27;97805;-27
2024/01/28 07:52:59;;;;;;;0.88;0.73;;;;;;;1.96;90.46;103022.03;5057715;27;96605;-27
2024/01/28 07:55:25;;;;;;;2.20;0.70;;;;;;;1.95;90.66;103017.53;5055913;27;96823;-27
2024/01/28 07:57:50;;;;;;;0.63;0.57;;;;;;;1.99;91.03;103013.16;5056808;27;97824;-28
2024/01/28 08:00:16;;;;;;;2.13;0.93;;;;;;;1.96;90.54;103010.44;5057572;27;99062;-27
2024/01/28 08:02:41;;;;;;;3.08;0.88;;;;;;;1.99;89.44;103003.34;5057744;27;96763;-27
2024/01/28 08:05:07;;;;;;;1.73;0.95;;;;;;;1.98;89.22;103000.66;5057403;27;96867;-27
2024/01/28 08:07:32;;;;;;;0.63;0.52;;;;;;;2.01;89.17;102996.25;5056944;27;97336;-27
2024/01/28 08:09:58;;;;;;;0.47;0.47;;;;;;;2.07;88.58;103004.31;5057308;27;97270;-27
2024/01/28 08:12:23;;;;;;;0.80;0.65;;;;;;;2.03;88.46;102988.25;5057393;27;96521;-29
2024/01/28 08:14:48;;;;;;;1.42;0.88;;;;;;;2.13;88.70;102984.75;5057214;27;96802;-27
2024/01/28 08:17:14;;;;;;;2.47;0.70;;;;;;;2.16;88.53;102984.78;5056571;27;99233;-28
2024/01/28 08:19:40;;;;;;;1.20;0.73;;;;;;;2.12;88.66;102983.88;5055543;27;100535;-27
2024/01/28 08:22:05;;;;;;;1.65;0.85;;;;;;;2.17;87.10;102985.66;5055703;27;96824;-27
2024/01/28 08:24:31;;;;;;;1.15;0.82;;;;;;;2.25;87.63;102994.66;5057832;27;96755;-27
2024/01/28 08:26:58;;;;;;;0.80;0.68;;;;;;;2.17;87.03;102981.22;5056675;27;99172;-27
2024/01/28 08:29:24;;;;;;;0.43;0.43;;;;;;;2.31;86.45;102994.69;5055315;27;100662;-27
2024/01/28 08:31:49;;;;;;;0.50;0.50;;;;;;;2.27;86.02;102977.72;5056425;27;96684;-27
2024/01/28 08:34:16;;;;;;;0.85;0.60;;;;;;;2.37;85.77;102984.03;5057062;27;96808;-27
2024/01/28 08:36:41;;;;;;;0.77;0.77;;;;;;;2.42;85.79;102976.06;5056463;27;98100;-28
2024/01/28 08:39:09;;;;;;;1.23;0.85;;;;;;;2.41;85.27;102976.91;5055421;27;97766;-35
2024/01/28 08:41:36;;;;;;;0.93;0.70;;;;;;;2.48;86.00;102987.69;5053085;27;96764;-29
2024/01/28 08:44:02;;;;;;;0.70;0.68;;;;;;;2.54;84.59;102995.75;5053093;27;97152;-34
2024/01/28 08:46:28;;;;;;;0.25;0.25;;;;;;;2.57;85.13;102983.28;5052841;27;101427;-28
2024/01/28 08:48:53;;;;;;;1.13;0.93;;;;;;;2.64;84.55;102993.13;5054719;27;99231;-27
2024/01/28 08:51:19;;;;;;;0.80;0.73;;;;;;;2.67;84.30;102979.75;5055317;27;97094;-29
2024/01/28 08:53:44;;;;;;;1.48;1.13;;;;;;;2.73;85.06;102983.38;5055635;27;96793;-27
2024/01/28 08:56:09;;;;;;;0.50;0.45;;;;;;;2.75;84.46;102980.72;5055562;27;98868;-27
2024/01/28 08:58:35;;;;;;;0.47;0.38;;;;;;;2.78;84.77;102979.84;5055430;27;98766;-27
2024/01/28 09:01:01;;;;;;;0.22;0.22;;;;;;;2.83;84.61;102978.97;5056459;27;96658;-27
2024/01/28 09:03:26;;;;;;;1.10;0.70;;;;;;;2.87;84.21;102983.44;5056587;27;96798;-27
2024/01/28 09:05:51;;;;;;;0.32;0.25;;;;;;;2.89;83.30;102973.66;5055774;27;99254;-27
2024/01/28 09:08:17;;;;;;;0.68;0.68;;;;;;;3.01;83.17;102974.59;5056226;27;97301;-27
2024/01/28 09:10:42;;;;;;;0.65;0.40;;;;;;;3.08;81.24;102971.06;5056778;27;96927;-28
2024/01/28 09:13:07;;;;;;;0.90;0.85;;;;;;;3.23;82.26;102967.53;5056975;27;96644;-27
2024/01/28 09:15:33;;;;;;;0.47;0.30;;;;;;;3.31;81.97;102971.09;5055801;27;99084;-27
2024/01/28 09:17:58;;;;;;;1.90;0.50;;;;;;;3.34;81.06;102955.06;5055749;27;99152;-27
2024/01/28 09:20:24;;;;;;;1.00;0.90;;;;;;;3.40;81.64;102955.97;5055934;27;96594;-28
2024/01/28 09:22:49;;;;;;;0.63;0.43;;;;;;;3.49;80.76;102963.13;5055996;27;96828;-27
2024/01/28 09:25:14;;;;;;;5.57;1.08;;;;;;;3.53;80.92;102964.03;5056031;27;97877;-27
2024/01/28 09:27:40;;;;;;;0.50;0.30;;;;;;;3.66;80.23;102963.16;5056111;27;97765;-27
2024/01/28 09:30:06;;;;;;;1.73;0.85;;;;;;;3.70;78.55;102956.91;5056227;27;96505;-27
2024/01/28 09:32:32;;;;;;;0.65;0.63;;;;;;;3.82;78.21;102964.97;5056063;27;96796;-27
2024/01/28 09:34:57;;;;;;;1.13;0.80;;;;;;;3.91;78.17;102971.22;5055174;27;99209;-27
2024/01/28 09:37:22;;;;;;;0.50;0.50;;;;;;;3.84;78.97;102962.28;5056019;27;96679;-27
2024/01/28 09:39:48;;;;;;;0.30;0.28;;;;;;;3.95;79.71;102954.25;5055850;27;96580;-27
2024/01/28 09:42:23;;;;;;;0.55;0.43;;;;;;;4.08;77.05;102952.47;5056199;27;96725;-27
2024/01/28 09:44:49;;;;;;;0.88;0.82;;;;;;;4.23;75.17;102944.41;5053813;27;100924;-28
2024/01/28 09:47:18;;;;;;;0.47;0.47;;;;;;;4.46;76.93;102955.97;5055686;27;97155;-27
2024/01/28 09:49:44;;;;;;;0.93;0.52;;;;;;;4.63;76.46;102950.56;5054226;27;96723;-27
2024/01/28 09:52:11;;;;;;;0.60;0.60;;;;;;;4.79;76.41;102950.50;5055935;27;96793;-27
2024/01/28 09:54:37;;;;;;;0.88;0.85;;;;;;;4.88;75.93;102940.63;5053862;27;101006;-27
2024/01/28 09:57:05;;;;;;;1.10;0.98;;;;;;;5.02;74.39;102937.88;5053766;27;101256;-27
2024/01/28 09:59:33;;;;;;;0.57;0.57;;;;;;;5.23;72.62;102942.25;5053745;27;96917;-27
2024/01/28 10:02:00;;;;;;;0.40;0.35;;;;;;;5.36;73.52;102944.88;5054455;27;96947;-28
2024/01/28 10:04:27;;;;;;;0.20;0.20;;;;;;;5.45;72.31;102934.94;5053969;27;100948;-27
2024/01/28 10:06:57;;;;;;;0.28;0.28;;;;;;;5.51;71.48;102921.47;5055119;27;99484;-27
2024/01/28 10:09:23;;;;;;;0.75;0.57;;;;;;;5.70;72.53;102915.97;5054904;27;96461;-27
2024/01/28 10:11:48;;;;;;;0.45;0.45;;;;;;;5.85;74.10;102929.28;5053998;27;96794;-27
2024/01/28 10:14:13;;;;;;;1.40;0.50;;;;;;;5.95;71.12;102922.06;5055188;27;97352;-27
2024/01/28 10:16:39;;;;;;;0.68;0.60;;;;;;;6.04;71.16;102921.09;5054814;27;99169;-27
2024/01/28 10:19:05;;;;;;;1.83;0.88;;;;;;;6.17;72.50;102925.44;5055387;27;96434;-27
2024/01/28 10:21:31;;;;;;;0.90;0.50;;;;;;;6.31;72.33;102923.50;5053900;27;96868;-27
2024/01/28 10:23:57;;;;;;;0.95;0.68;;;;;;;6.41;70.99;102926.97;5054802;27;99023;-27
2024/01/28 10:26:23;;;;;;;0.52;0.30;;;;;;;6.51;70.29;102928.69;5053828;27;100776;-28
2024/01/28 10:28:51;;;;;;;1.58;0.63;;;;;;;6.53;67.17;102916.09;5055407;27;96585;-27
2024/01/28 10:31:17;;;;;;;0.20;0.20;;;;;;;6.66;66.07;102918.66;5053812;27;96793;-27
2024/01/28 10:33:43;;;;;;;0.38;0.38;;;;;;;6.78;67.02;102921.19;5053015;27;100817;-27
2024/01/28 10:36:09;;;;;;;0.57;0.40;;;;;;;6.91;67.38;102916.53;5054522;27;99327;-28
2024/01/28 10:38:37;;;;;;;0.30;0.30;;;;;;;7.04;65.56;102918.16;5055088;27;96649;-27
2024/01/28 10:41:03;;;;;;;1.33;0.73;;;;;;;7.12;66.26;102913.56;5053844;27;96813;-27
2024/01/28 10:43:37;;;;;;;0.68;0.55;;;;;;;7.29;66.79;102924.09;5053291;27;101356;-27
2024/01/28 10:46:05;;;;;;;0.80;0.65;;;;;;;7.39;66.78;102909.59;5055217;27;98919;-27
2024/01/28 10:48:31;;;;;;;0.50;0.43;;;;;;;7.47;66.86;102906.75;5057288;27;96480;-27
2024/01/28 10:50:58;;;;;;;0.77;0.60;;;;;;;7.56;66.06;102893.13;5059254;27;96744;-27
2024/01/28 10:53:25;;;;;;;0.60;0.52;;;;;;;7.73;63.35;102895.56;5058398;27;97368;-27
2024/01/28 10:55:51;;;;;;;0.63;0.60;;;;;;;7.78;63.65;102890.97;5056494;27;100834;-27
2024/01/28 10:58:16;;;;;;;0.68;0.52;;;;;;;7.87;65.29;102903.44;5055974;27;96725;-27
2024/01/28 11:00:42;;;;;;;10.23;0.90;;;;;;;8.00;62.62;102894.19;5058383;27;96776;-27
2024/01/28 11:03:10;;;;;;;0.70;0.70;;;;;;;8.15;64.93;102884.94;5056872;27;100517;-28
2024/01/28 11:05:36;;;;;;;2.50;1.10;;;;;;;8.17;61.68;102866.88;5057810;27;98770;-27
2024/01/28 11:08:02;;;;;;;1.45;0.80;;;;;;;8.23;63.47;102869.47;5056952;27;96552;-27
2024/01/28 11:10:29;;;;;;;1.15;0.75;;;;;;;8.60;64.04;102865.16;5058615;27;96761;-28
2024/01/28 11:12:56;;;;;;;2.47;0.73;;;;;;;8.63;61.62;102867.84;5056488;27;100979;-27
2024/01/28 11:15:22;;;;;;;1.05;0.80;;;;;;;8.60;62.35;102859.78;5056979;27;99039;-27
2024/01/28 11:17:48;;;;;;;0.47;0.47;;;;;;;8.80;57.94;102862.06;5056557;27;97187;-27
2024/01/28 11:20:17;;;;;;;0.63;0.50;;;;;;;8.91;60.01;102858.22;5058357;27;96756;-27
2024/01/28 11:22:49;;;;;;;1.70;0.70;;;;;;;9.07;61.70;102853.31;5055833;27;101721;-27
2024/01/28 11:25:19;;;;;;;0.60;0.40;;;;;;;9.17;61.00;102845.00;5054717;27;103365;-28